Marine Rouge — JG5115 — position and weather

sailwx.info

Track history (hours):
 
Tides and Currents Weather Stations Pressure Air Temp Water Temp Dewpoint Dewpoint Depression Visibility Wind Speed Wind Dir Waves Ship Positions

Marine Rouge

Last reported at 2016-Aug-26 09:34 UTC. Time now 2016-Aug-26 10:10 UTC.
Position N 35°27' E 139°39'.

Length 52 m; draft 2.8 m.

Type: Passenger vessel. MMSI: 431000518.

Date/timePositionNaut miles runAvg speedWind from/ knotsBaromVisibWave heightAir tempDewpointWater temp
2016-Aug-26 09:34N 35°27' E 139°39'0 0.0
2016-Aug-26 08:34N 35°27' E 139°39'1 0.5
2016-Aug-26 07:34N 35°27' E 139°39'1 0.5
2016-Aug-26 06:34N 35°27' E 139°39'0 0.0
2016-Aug-26 04:34N 35°27' E 139°39'1 0.5
2016-Aug-26 03:34N 35°27' E 139°39'1 0.5
2016-Aug-26 02:34N 35°27' E 139°39'0 0.0
2016-Aug-26 01:33N 35°27' E 139°39'0 0.0
2016-Aug-26 00:34N 35°27' E 139°39'0 0.0
2016-Aug-25 12:31N 35°27' E 139°39'1 1.2
2016-Aug-25 11:34N 35°28' E 139°40'1 1.3
2016-Aug-25 10:34N 35°27' E 139°39'1 0.5
2016-Aug-25 09:34N 35°27' E 139°39'0 0.0
2016-Aug-25 08:34N 35°27' E 139°39'1 0.5
2016-Aug-25 07:34N 35°27' E 139°39'1 0.5
2016-Aug-25 06:34N 35°27' E 139°39'0 0.0
2016-Aug-25 04:34N 35°27' E 139°39'1 0.5
2016-Aug-25 03:34N 35°27' E 139°39'1 0.5
2016-Aug-25 02:34N 35°27' E 139°39'0 0.0
2016-Aug-25 01:34N 35°27' E 139°39'0 0.0
2016-Aug-24 12:27N 35°27' E 139°39'1 1.0
2016-Aug-24 11:34N 35°28' E 139°39'1 0.5
2016-Aug-24 10:34N 35°27' E 139°39'1 0.5
2016-Aug-24 09:33N 35°27' E 139°39'0 0.0
2016-Aug-24 08:33N 35°27' E 139°39'1 0.5
2016-Aug-24 07:33N 35°27' E 139°39'1 0.5
2016-Aug-24 06:34N 35°27' E 139°39'0 0.0
2016-Aug-24 04:33N 35°27' E 139°39'1 0.5
2016-Aug-24 03:34N 35°27' E 139°39'1 0.5
2016-Aug-24 02:34N 35°27' E 139°39'0 0.0
2016-Aug-24 01:34N 35°27' E 139°39'2 0.1
2016-Aug-23 11:33N 35°28' E 139°40'1 1.4
2016-Aug-23 10:34N 35°27' E 139°39'1 0.6
2016-Aug-23 09:33N 35°27' E 139°39'0 0.0
2016-Aug-23 08:33N 35°27' E 139°39'1 0.5
2016-Aug-23 07:34N 35°27' E 139°39'1 0.5
2016-Aug-23 06:33N 35°27' E 139°39'0 0.1
2016-Aug-23 05:34N 35°27' E 139°39'0 0.1
2016-Aug-23 04:33N 35°27' E 139°39'3 2.8
2016-Aug-23 03:33N 35°28' E 139°42'3 2.8
2016-Aug-23 02:33N 35°27' E 139°39'0 0.0
2016-Aug-23 01:33N 35°27' E 139°39'0 0.0
2016-Aug-22 07:33N 35°27' E 139°39'0 0.0
2016-Aug-22 06:33N 35°27' E 139°39'0 0.0
2016-Aug-22 05:33N 35°27' E 139°39'0 0.0
2016-Aug-22 04:33N 35°27' E 139°39'0 0.0
2016-Aug-22 03:33N 35°27' E 139°39'0 0.0
2016-Aug-22 02:33N 35°27' E 139°39'0 0.0
2016-Aug-22 01:33N 35°27' E 139°39'0 0.0
2016-Aug-22 00:33N 35°27' E 139°39'0 0.0
2016-Aug-21 23:33N 35°27' E 139°39'0 0.0
2016-Aug-21 22:33N 35°27' E 139°39'0 0.0
2016-Aug-21 21:33N 35°27' E 139°39'0 0.0
2016-Aug-21 20:33N 35°27' E 139°39'0 0.0
2016-Aug-21 19:33N 35°27' E 139°39'0 0.0
2016-Aug-21 18:33N 35°27' E 139°39'0 0.0
2016-Aug-21 17:33N 35°27' E 139°39'0 0.0
2016-Aug-21 16:33N 35°27' E 139°39'0 0.0
2016-Aug-21 15:33N 35°27' E 139°39'0 0.0
2016-Aug-21 14:33N 35°27' E 139°39'0 0.0
2016-Aug-21 13:33N 35°27' E 139°39'0 0.2
2016-Aug-21 12:33N 35°27' E 139°39'1 0.7
2016-Aug-21 11:33N 35°28' E 139°39'0 0.4
2016-Aug-21 10:33N 35°27' E 139°39'1 0.5
2016-Aug-21 09:33N 35°27' E 139°39'0 0.0
2016-Aug-21 08:33N 35°27' E 139°39'1 0.5
2016-Aug-21 07:34N 35°27' E 139°39'1 0.5
2016-Aug-21 06:33N 35°27' E 139°39'0 0.1
2016-Aug-21 05:33N 35°27' E 139°39'0 0.1
2016-Aug-21 04:33N 35°27' E 139°39'1 0.5
2016-Aug-21 03:33N 35°27' E 139°39'1 0.5
2016-Aug-21 02:33N 35°27' E 139°39'0 0.0
2016-Aug-21 01:34N 35°27' E 139°39'0 0.0
2016-Aug-21 00:33N 35°27' E 139°39'0 0.0
2016-Aug-20 12:34N 35°27' E 139°39'1 0.8
2016-Aug-20 11:34N 35°28' E 139°39'0 0.1
2016-Aug-20 10:33N 35°28' E 139°39'1 0.9
2016-Aug-20 09:34N 35°27' E 139°39'0 0.0
2016-Aug-20 08:34N 35°27' E 139°39'1 0.7
2016-Aug-20 07:33N 35°27' E 139°39'1 0.7
2016-Aug-20 06:34N 35°27' E 139°39'0 0.1
2016-Aug-20 05:33N 35°27' E 139°39'0 0.1
2016-Aug-20 04:33N 35°27' E 139°39'1 0.5
2016-Aug-20 03:34N 35°27' E 139°39'1 0.5
2016-Aug-20 02:33N 35°27' E 139°39'0 0.0
2016-Aug-20 01:34N 35°27' E 139°39'0 0.0
2016-Aug-20 00:33N 35°27' E 139°39'1 0.1
2016-Aug-19 11:33N 35°28' E 139°39'0 0.4
2016-Aug-19 10:33N 35°27' E 139°39'1 0.7
2016-Aug-19 09:33N 35°27' E 139°39'0 0.0
2016-Aug-19 08:33N 35°27' E 139°39'1 0.5
2016-Aug-19 07:34N 35°27' E 139°39'1 0.5
2016-Aug-19 06:33N 35°27' E 139°39'0 0.1
2016-Aug-19 05:33N 35°27' E 139°39'0 0.2
2016-Aug-19 04:34N 35°27' E 139°39'0 0.4
2016-Aug-19 03:33N 35°27' E 139°39'1 0.7
2016-Aug-19 02:33N 35°27' E 139°39'0 0.0
2016-Aug-19 01:33N 35°27' E 139°39'0 0.0
2016-Aug-19 00:33N 35°27' E 139°39'1 0.1
2016-Aug-18 11:33N 35°28' E 139°40'1 1.0
2016-Aug-18 10:34N 35°27' E 139°39'1 0.6
2016-Aug-18 09:33N 35°27' E 139°39'0 0.0
2016-Aug-18 08:33N 35°27' E 139°39'1 0.6
2016-Aug-18 07:34N 35°27' E 139°39'1 0.6
2016-Aug-18 06:33N 35°27' E 139°39'0 0.1
2016-Aug-18 05:34N 35°27' E 139°39'0 0.3
2016-Aug-18 04:33N 35°27' E 139°39'0 0.4
2016-Aug-18 03:33N 35°27' E 139°39'1 0.7
2016-Aug-18 02:33N 35°27' E 139°39'0 0.0
2016-Aug-18 01:33N 35°27' E 139°39'1 0.1
2016-Aug-17 11:34N 35°28' E 139°39'0 0.3
2016-Aug-17 10:34N 35°27' E 139°39'1 0.6
2016-Aug-17 09:34N 35°27' E 139°39'0 0.0
2016-Aug-17 08:33N 35°27' E 139°39'1 1.2
2016-Aug-17 07:33N 35°27' E 139°41'1 1.2
2016-Aug-17 06:33N 35°27' E 139°39'0 0.1
2016-Aug-17 05:34N 35°27' E 139°39'0 0.1
2016-Aug-17 04:34N 35°27' E 139°39'3 2.7
2016-Aug-17 03:34N 35°27' E 139°42'3 2.7
2016-Aug-17 02:34N 35°27' E 139°39'0 0.0
2016-Aug-17 01:34N 35°27' E 139°39'0 0.0
2016-Aug-17 00:34N 35°27' E 139°39'0 0.0
2016-Aug-16 23:33N 35°27' E 139°39'0 0.0
2016-Aug-16 22:33N 35°27' E 139°39'0 0.0
2016-Aug-16 21:33N 35°27' E 139°39'0 0.0
2016-Aug-16 20:34N 35°27' E 139°39'0 0.0
2016-Aug-16 19:34N 35°27' E 139°39'0 0.0
2016-Aug-16 18:33N 35°27' E 139°39'0 0.0
2016-Aug-16 17:33N 35°27' E 139°39'0 0.0
2016-Aug-16 16:33N 35°27' E 139°39'0 0.0
2016-Aug-16 15:34N 35°27' E 139°39'0 0.0
2016-Aug-16 14:34N 35°27' E 139°39'0 0.0
2016-Aug-16 13:34N 35°27' E 139°39'0 0.0
2016-Aug-16 12:34N 35°27' E 139°39'0 0.0
2016-Aug-16 11:34N 35°27' E 139°39'1 1.2
2016-Aug-16 10:34N 35°27' E 139°40'  
Track history (hours):
 
Tides and Currents Weather Stations Pressure Air Temp Water Temp Dewpoint Dewpoint Depression Visibility Wind Speed Wind Dir Waves Ship Positions

Marine Rouge

Last reported at 2016-Aug-26 09:34 UTC. Time now 2016-Aug-26 10:10 UTC.
Position N 35°27' E 139°39'.

Length 52 m; draft 2.8 m.

Type: Passenger vessel. MMSI: 431000518.

Date/timePositionNaut miles runAvg speedWind from/ knotsBaromVisibWave heightAir tempDewpointWater temp
2016-Aug-26 09:34N 35°27' E 139°39'0 0.0
2016-Aug-26 08:34N 35°27' E 139°39'1 0.5
2016-Aug-26 07:34N 35°27' E 139°39'1 0.5
2016-Aug-26 06:34N 35°27' E 139°39'0 0.0
2016-Aug-26 04:34N 35°27' E 139°39'1 0.5
2016-Aug-26 03:34N 35°27' E 139°39'1 0.5
2016-Aug-26 02:34N 35°27' E 139°39'0 0.0
2016-Aug-26 01:33N 35°27' E 139°39'0 0.0
2016-Aug-26 00:34N 35°27' E 139°39'0 0.0
2016-Aug-25 12:31N 35°27' E 139°39'1 1.2
2016-Aug-25 11:34N 35°28' E 139°40'1 1.3
2016-Aug-25 10:34N 35°27' E 139°39'1 0.5
2016-Aug-25 09:34N 35°27' E 139°39'0 0.0
2016-Aug-25 08:34N 35°27' E 139°39'1 0.5
2016-Aug-25 07:34N 35°27' E 139°39'1 0.5
2016-Aug-25 06:34N 35°27' E 139°39'0 0.0
2016-Aug-25 04:34N 35°27' E 139°39'1 0.5
2016-Aug-25 03:34N 35°27' E 139°39'1 0.5
2016-Aug-25 02:34N 35°27' E 139°39'0 0.0
2016-Aug-25 01:34N 35°27' E 139°39'0 0.0
2016-Aug-24 12:27N 35°27' E 139°39'1 1.0
2016-Aug-24 11:34N 35°28' E 139°39'1 0.5
2016-Aug-24 10:34N 35°27' E 139°39'1 0.5
2016-Aug-24 09:33N 35°27' E 139°39'0 0.0
2016-Aug-24 08:33N 35°27' E 139°39'1 0.5
2016-Aug-24 07:33N 35°27' E 139°39'1 0.5
2016-Aug-24 06:34N 35°27' E 139°39'0 0.0
2016-Aug-24 04:33N 35°27' E 139°39'1 0.5
2016-Aug-24 03:34N 35°27' E 139°39'1 0.5
2016-Aug-24 02:34N 35°27' E 139°39'0 0.0
2016-Aug-24 01:34N 35°27' E 139°39'2 0.1
2016-Aug-23 11:33N 35°28' E 139°40'1 1.4
2016-Aug-23 10:34N 35°27' E 139°39'1 0.6
2016-Aug-23 09:33N 35°27' E 139°39'0 0.0
2016-Aug-23 08:33N 35°27' E 139°39'1 0.5
2016-Aug-23 07:34N 35°27' E 139°39'1 0.5
2016-Aug-23 06:33N 35°27' E 139°39'0 0.1
2016-Aug-23 05:34N 35°27' E 139°39'0 0.1
2016-Aug-23 04:33N 35°27' E 139°39'3 2.8
2016-Aug-23 03:33N 35°28' E 139°42'3 2.8
2016-Aug-23 02:33N 35°27' E 139°39'0 0.0
2016-Aug-23 01:33N 35°27' E 139°39'0 0.0
2016-Aug-22 07:33N 35°27' E 139°39'0 0.0
2016-Aug-22 06:33N 35°27' E 139°39'0 0.0
2016-Aug-22 05:33N 35°27' E 139°39'0 0.0
2016-Aug-22 04:33N 35°27' E 139°39'0 0.0
2016-Aug-22 03:33N 35°27' E 139°39'0 0.0
2016-Aug-22 02:33N 35°27' E 139°39'0 0.0
2016-Aug-22 01:33N 35°27' E 139°39'0 0.0
2016-Aug-22 00:33N 35°27' E 139°39'0 0.0
2016-Aug-21 23:33N 35°27' E 139°39'0 0.0
2016-Aug-21 22:33N 35°27' E 139°39'0 0.0
2016-Aug-21 21:33N 35°27' E 139°39'0 0.0
2016-Aug-21 20:33N 35°27' E 139°39'0 0.0
2016-Aug-21 19:33N 35°27' E 139°39'0 0.0
2016-Aug-21 18:33N 35°27' E 139°39'0 0.0
2016-Aug-21 17:33N 35°27' E 139°39'0 0.0
2016-Aug-21 16:33N 35°27' E 139°39'0 0.0
2016-Aug-21 15:33N 35°27' E 139°39'0 0.0
2016-Aug-21 14:33N 35°27' E 139°39'0 0.0
2016-Aug-21 13:33N 35°27' E 139°39'0 0.2
2016-Aug-21 12:33N 35°27' E 139°39'1 0.7
2016-Aug-21 11:33N 35°28' E 139°39'0 0.4
2016-Aug-21 10:33N 35°27' E 139°39'1 0.5
2016-Aug-21 09:33N 35°27' E 139°39'0 0.0
2016-Aug-21 08:33N 35°27' E 139°39'1 0.5
2016-Aug-21 07:34N 35°27' E 139°39'1 0.5
2016-Aug-21 06:33N 35°27' E 139°39'0 0.1
2016-Aug-21 05:33N 35°27' E 139°39'0 0.1
2016-Aug-21 04:33N 35°27' E 139°39'1 0.5
2016-Aug-21 03:33N 35°27' E 139°39'1 0.5
2016-Aug-21 02:33N 35°27' E 139°39'0 0.0
2016-Aug-21 01:34N 35°27' E 139°39'0 0.0
2016-Aug-21 00:33N 35°27' E 139°39'0 0.0
2016-Aug-20 12:34N 35°27' E 139°39'1 0.8
2016-Aug-20 11:34N 35°28' E 139°39'0 0.1
2016-Aug-20 10:33N 35°28' E 139°39'1 0.9
2016-Aug-20 09:34N 35°27' E 139°39'0 0.0
2016-Aug-20 08:34N 35°27' E 139°39'1 0.7
2016-Aug-20 07:33N 35°27' E 139°39'1 0.7
2016-Aug-20 06:34N 35°27' E 139°39'0 0.1
2016-Aug-20 05:33N 35°27' E 139°39'0 0.1
2016-Aug-20 04:33N 35°27' E 139°39'1 0.5
2016-Aug-20 03:34N 35°27' E 139°39'1 0.5
2016-Aug-20 02:33N 35°27' E 139°39'0 0.0
2016-Aug-20 01:34N 35°27' E 139°39'0 0.0
2016-Aug-20 00:33N 35°27' E 139°39'1 0.1
2016-Aug-19 11:33N 35°28' E 139°39'0 0.4
2016-Aug-19 10:33N 35°27' E 139°39'1 0.7
2016-Aug-19 09:33N 35°27' E 139°39'0 0.0
2016-Aug-19 08:33N 35°27' E 139°39'1 0.5
2016-Aug-19 07:34N 35°27' E 139°39'1 0.5
2016-Aug-19 06:33N 35°27' E 139°39'0 0.1
2016-Aug-19 05:33N 35°27' E 139°39'0 0.2
2016-Aug-19 04:34N 35°27' E 139°39'0 0.4
2016-Aug-19 03:33N 35°27' E 139°39'1 0.7
2016-Aug-19 02:33N 35°27' E 139°39'0 0.0
2016-Aug-19 01:33N 35°27' E 139°39'0 0.0
2016-Aug-19 00:33N 35°27' E 139°39'1 0.1
2016-Aug-18 11:33N 35°28' E 139°40'1 1.0
2016-Aug-18 10:34N 35°27' E 139°39'1 0.6
2016-Aug-18 09:33N 35°27' E 139°39'0 0.0
2016-Aug-18 08:33N 35°27' E 139°39'1 0.6
2016-Aug-18 07:34N 35°27' E 139°39'1 0.6
2016-Aug-18 06:33N 35°27' E 139°39'0 0.1
2016-Aug-18 05:34N 35°27' E 139°39'0 0.3
2016-Aug-18 04:33N 35°27' E 139°39'0 0.4
2016-Aug-18 03:33N 35°27' E 139°39'1 0.7
2016-Aug-18 02:33N 35°27' E 139°39'0 0.0
2016-Aug-18 01:33N 35°27' E 139°39'1 0.1
2016-Aug-17 11:34N 35°28' E 139°39'0 0.3
2016-Aug-17 10:34N 35°27' E 139°39'1 0.6
2016-Aug-17 09:34N 35°27' E 139°39'0 0.0
2016-Aug-17 08:33N 35°27' E 139°39'1 1.2
2016-Aug-17 07:33N 35°27' E 139°41'1 1.2
2016-Aug-17 06:33N 35°27' E 139°39'0 0.1
2016-Aug-17 05:34N 35°27' E 139°39'0 0.1
2016-Aug-17 04:34N 35°27' E 139°39'3 2.7
2016-Aug-17 03:34N 35°27' E 139°42'3 2.7
2016-Aug-17 02:34N 35°27' E 139°39'0 0.0
2016-Aug-17 01:34N 35°27' E 139°39'0 0.0
2016-Aug-17 00:34N 35°27' E 139°39'0 0.0
2016-Aug-16 23:33N 35°27' E 139°39'0 0.0
2016-Aug-16 22:33N 35°27' E 139°39'0 0.0
2016-Aug-16 21:33N 35°27' E 139°39'0 0.0
2016-Aug-16 20:34N 35°27' E 139°39'0 0.0
2016-Aug-16 19:34N 35°27' E 139°39'0 0.0
2016-Aug-16 18:33N 35°27' E 139°39'0 0.0
2016-Aug-16 17:33N 35°27' E 139°39'0 0.0
2016-Aug-16 16:33N 35°27' E 139°39'0 0.0
2016-Aug-16 15:34N 35°27' E 139°39'0 0.0
2016-Aug-16 14:34N 35°27' E 139°39'0 0.0
2016-Aug-16 13:34N 35°27' E 139°39'0 0.0
2016-Aug-16 12:34N 35°27' E 139°39'0 0.0
2016-Aug-16 11:34N 35°27' E 139°39'1 1.2
2016-Aug-16 10:34N 35°27' E 139°40'  

Dump ship's entire track history